createdAt,value
2022-09-23T00:01:08.164Z,79.90
2022-09-23T00:03:37.122Z,79.70
2022-09-23T00:06:07.047Z,79.30
2022-09-23T00:08:33.759Z,79.30
2022-09-23T00:11:15.741Z,79.30
2022-09-23T00:13:44.380Z,79.70
2022-09-23T00:16:17.044Z,79.80
2022-09-23T00:18:44.325Z,79.40
2022-09-23T00:21:13.427Z,79.80
2022-09-23T00:23:42.731Z,79.80
2022-09-23T00:26:12.872Z,80.00
2022-09-23T00:28:40.451Z,79.90
2022-09-23T00:31:10.264Z,79.90
2022-09-23T00:33:36.988Z,79.80
2022-09-23T00:36:10.985Z,79.90
2022-09-23T00:38:38.619Z,79.90
2022-09-23T00:41:06.268Z,79.90
2022-09-23T00:43:43.416Z,79.70
2022-09-23T00:46:16.571Z,79.70
2022-09-23T00:48:44.689Z,79.90
2022-09-23T00:51:17.712Z,80.10
2022-09-23T00:53:46.848Z,80.50
2022-09-23T00:56:15.487Z,80.20
2022-09-23T00:58:44.388Z,80.50
2022-09-23T01:01:13.834Z,80.30
2022-09-23T01:03:44.359Z,80.20
2022-09-23T01:06:11.607Z,80.10
2022-09-23T01:08:38.887Z,80.00
2022-09-23T01:11:48.772Z,80.10
2022-09-23T01:14:27.524Z,80.10
2022-09-23T01:17:15.760Z,80.10
2022-09-23T01:20:03.409Z,80.50
2022-09-23T01:22:38.161Z,80.70
2022-09-23T01:25:43.328Z,81.00
2022-09-23T01:28:23.988Z,80.50
2022-09-23T01:31:24.303Z,80.70
2022-09-23T01:34:17.287Z,80.90
2022-09-23T01:36:53.236Z,80.70
2022-09-23T01:39:40.097Z,80.60
2022-09-23T01:42:32.253Z,81.00
2022-09-23T01:45:08.813Z,81.20
2022-09-23T01:47:41.093Z,81.50
2022-09-23T01:50:39.066Z,81.80
2022-09-23T01:53:22.906Z,81.30
2022-09-23T01:55:56.988Z,81.30
2022-09-23T01:58:29.443Z,80.90
2022-09-23T02:01:07.814Z,81.00
2022-09-23T02:03:43.655Z,80.90
2022-09-23T02:06:10.165Z,80.80
2022-09-23T02:08:47.260Z,80.80
2022-09-23T02:11:16.010Z,81.00
2022-09-23T02:13:45.625Z,81.30
2022-09-23T02:16:32.880Z,81.20
2022-09-23T02:19:08.492Z,80.90
2022-09-23T02:21:40.668Z,80.50
2022-09-23T02:24:21.669Z,80.60
2022-09-23T02:27:18.242Z,80.50
2022-09-23T02:29:53.896Z,81.00
2022-09-23T02:32:29.014Z,81.20
2022-09-23T02:35:32.961Z,80.80
2022-09-23T02:38:18.153Z,80.70
2022-09-23T02:40:59.972Z,81.20
2022-09-23T02:43:39.131Z,81.20
2022-09-23T02:46:07.170Z,81.30
2022-09-23T02:48:43.243Z,81.40
2022-09-23T02:51:10.601Z,81.50
2022-09-23T02:53:38.048Z,81.90
2022-09-23T02:56:20.260Z,81.40
2022-09-23T02:58:53.424Z,81.20
2022-09-23T03:01:47.493Z,81.70
2022-09-23T03:04:22.975Z,81.90
2022-09-23T03:06:58.966Z,81.70
2022-09-23T03:09:58.117Z,81.50
2022-09-23T03:12:35.947Z,81.50
2022-09-23T03:15:18.757Z,81.80
2022-09-23T03:18:11.642Z,81.50
2022-09-23T03:20:50.046Z,81.60
2022-09-23T03:23:26.056Z,81.50
2022-09-23T03:25:55.377Z,81.50
2022-09-23T03:28:37.273Z,81.60
2022-09-23T03:31:04.779Z,81.90
2022-09-23T03:33:32.623Z,81.70
2022-09-23T03:36:27.771Z,81.40
2022-09-23T03:39:02.254Z,81.50
2022-09-23T03:41:34.842Z,81.40
2022-09-23T03:44:02.965Z,81.30
2022-09-23T03:46:30.102Z,81.40
2022-09-23T03:49:06.357Z,81.50
2022-09-23T03:51:32.965Z,81.40
2022-09-23T03:53:59.625Z,81.60
2022-09-23T03:56:26.199Z,81.60
2022-09-23T03:58:52.819Z,82.10
2022-09-23T04:01:19.501Z,81.80
2022-09-23T04:03:46.304Z,81.60
2022-09-23T04:06:13.259Z,82.20
2022-09-23T04:08:39.876Z,82.50
2022-09-23T04:11:06.719Z,82.30
2022-09-23T04:13:33.591Z,82.60
2022-09-23T04:16:00.362Z,82.40
2022-09-23T04:18:27.205Z,82.30
2022-09-23T04:20:59.456Z,82.20
2022-09-23T04:23:26.991Z,82.30
2022-09-23T04:25:54.150Z,82.10
2022-09-23T04:28:21.557Z,82.20
2022-09-23T04:30:48.968Z,82.30
2022-09-23T04:33:16.498Z,82.80
2022-09-23T04:35:43.430Z,83.50
2022-09-23T04:38:12.336Z,83.50
2022-09-23T04:40:39.089Z,83.10
2022-09-23T04:43:07.193Z,82.70
2022-09-23T04:45:36.444Z,82.80
2022-09-23T04:48:03.438Z,82.80
2022-09-23T04:50:30.016Z,83.00
2022-09-23T04:52:56.671Z,82.80
2022-09-23T04:55:23.318Z,82.70
2022-09-23T04:57:49.888Z,82.40
2022-09-23T05:00:16.693Z,82.30
2022-09-23T05:02:45.417Z,82.20
2022-09-23T05:05:13.061Z,82.10
2022-09-23T05:07:40.363Z,82.10
2022-09-23T05:10:07.877Z,82.20
2022-09-23T05:12:34.473Z,82.30
2022-09-23T05:15:01.049Z,82.00
2022-09-23T05:17:29.091Z,82.20
2022-09-23T05:19:57.201Z,82.30
2022-09-23T05:22:26.110Z,82.20
2022-09-23T05:24:53.348Z,82.70
2022-09-23T05:27:20.897Z,83.10
2022-09-23T05:29:49.329Z,83.00
2022-09-23T05:32:16.005Z,83.40
2022-09-23T05:34:43.015Z,83.60
2022-09-23T05:37:09.945Z,83.40
2022-09-23T05:39:36.889Z,83.40
2022-09-23T05:42:03.923Z,83.10
2022-09-23T05:44:30.571Z,83.10
2022-09-23T05:46:57.427Z,83.20
2022-09-23T05:49:33.202Z,83.40
2022-09-23T05:52:09.401Z,83.60
2022-09-23T05:54:37.489Z,83.80
2022-09-23T05:57:05.133Z,83.40
2022-09-23T05:59:32.174Z,83.70
2022-09-23T06:01:59.083Z,83.70
2022-09-23T06:04:25.707Z,83.90
2022-09-23T06:06:53.080Z,83.90
2022-09-23T06:09:19.663Z,83.90
2022-09-23T06:11:46.720Z,83.70
2022-09-23T06:14:14.666Z,83.50
2022-09-23T06:16:41.374Z,83.20
2022-09-23T06:19:07.957Z,83.20
2022-09-23T06:21:36.639Z,83.30
2022-09-23T06:24:04.192Z,83.50
2022-09-23T06:26:33.637Z,83.30
2022-09-23T06:29:02.289Z,83.20
2022-09-23T06:31:29.493Z,83.70
2022-09-23T06:34:07.725Z,83.70
2022-09-23T06:36:43.213Z,83.70
2022-09-23T06:39:11.466Z,83.70
2022-09-23T06:41:39.055Z,83.60
2022-09-23T06:44:05.944Z,83.50
2022-09-23T06:46:32.765Z,83.40
2022-09-23T06:48:59.453Z,83.20
2022-09-23T06:51:26.108Z,83.00
2022-09-23T06:53:52.836Z,83.20
2022-09-23T06:56:21.899Z,83.10
2022-09-23T06:58:49.663Z,83.00
2022-09-23T07:01:17.977Z,83.00
2022-09-23T07:03:46.195Z,83.10
2022-09-23T07:06:12.948Z,83.00
2022-09-23T07:08:47.040Z,82.90
2022-09-23T07:11:15.148Z,82.60
2022-09-23T07:13:42.575Z,82.90
2022-09-23T07:16:10.818Z,83.00
2022-09-23T07:18:37.860Z,83.20
2022-09-23T07:21:16.922Z,83.50
2022-09-23T07:23:45.900Z,83.30
2022-09-23T07:26:13.687Z,83.30
2022-09-23T07:28:40.492Z,83.40
2022-09-23T07:31:10.325Z,83.50
2022-09-23T07:33:38.652Z,83.50
2022-09-23T07:36:08.091Z,83.50
2022-09-23T07:38:35.533Z,83.50
2022-09-23T07:41:07.385Z,83.60
2022-09-23T07:43:35.521Z,83.60
2022-09-23T07:46:06.905Z,83.40
2022-09-23T07:48:34.732Z,83.20
2022-09-23T07:51:07.568Z,82.50
2022-09-23T07:53:34.308Z,82.20
2022-09-23T07:56:01.007Z,80.50
2022-09-23T07:58:27.717Z,80.20
2022-09-23T08:00:54.288Z,79.20
2022-09-23T08:03:21.183Z,79.00
2022-09-23T08:05:48.081Z,79.00
2022-09-23T08:08:14.750Z,79.10
2022-09-23T08:10:41.474Z,79.00
2022-09-23T08:13:08.140Z,78.30
2022-09-23T08:15:34.853Z,78.10
2022-09-23T08:18:03.278Z,78.10
2022-09-23T08:20:47.272Z,78.10
2022-09-23T08:23:16.108Z,78.00
2022-09-23T08:25:47.049Z,77.60
2022-09-23T08:28:19.101Z,77.40
2022-09-23T08:30:48.733Z,77.30
2022-09-23T08:33:19.669Z,77.00
2022-09-23T08:35:49.642Z,76.90
2022-09-23T08:38:16.238Z,76.80
2022-09-23T08:40:47.406Z,76.90
2022-09-23T08:43:35.855Z,76.40
2022-09-23T08:46:05.151Z,76.10
2022-09-23T08:48:39.065Z,75.90
2022-09-23T08:51:12.527Z,75.60
2022-09-23T08:53:39.791Z,75.50
2022-09-23T08:56:13.155Z,74.10
2022-09-23T08:58:53.090Z,74.30
2022-09-23T09:01:19.810Z,74.10
2022-09-23T09:03:53.776Z,73.90
2022-09-23T09:07:18.303Z,73.90
2022-09-23T09:09:50.805Z,73.70
2022-09-23T09:12:22.966Z,73.40
2022-09-23T09:15:02.130Z,73.20
2022-09-23T09:17:39.955Z,73.00
2022-09-23T09:20:18.842Z,73.00
2022-09-23T09:23:10.878Z,73.00
2022-09-23T09:25:49.443Z,72.90
2022-09-23T09:28:27.731Z,72.80
2022-09-23T09:30:59.767Z,71.70
2022-09-23T09:33:44.765Z,71.60
2022-09-23T09:36:39.862Z,71.80
2022-09-23T09:39:09.295Z,72.00
2022-09-23T09:41:35.915Z,71.70
2022-09-23T09:44:17.148Z,71.30
2022-09-23T09:47:02.626Z,70.80
2022-09-23T09:49:40.374Z,70.80
2022-09-23T09:52:42.773Z,70.20
2022-09-23T09:55:12.263Z,70.10
2022-09-23T09:57:52.011Z,70.20
2022-09-23T10:00:36.049Z,70.30
2022-09-23T10:03:39.537Z,69.90
2022-09-23T10:06:30.460Z,69.70
2022-09-23T10:09:12.847Z,69.50
2022-09-23T10:11:40.694Z,69.60
2022-09-23T10:14:17.841Z,68.50
2022-09-23T10:16:47.029Z,67.50
2022-09-23T10:19:41.614Z,67.80
2022-09-23T10:22:29.811Z,68.00
2022-09-23T10:25:05.629Z,67.70
2022-09-23T10:27:35.707Z,67.10
2022-09-23T10:30:06.997Z,66.10
2022-09-23T10:32:43.739Z,64.80
2022-09-23T10:35:11.260Z,65.10
2022-09-23T10:37:49.289Z,64.30
2022-09-23T10:40:53.372Z,63.80
2022-09-23T10:44:00.659Z,64.10
2022-09-23T10:47:09.502Z,63.90
2022-09-23T10:49:54.244Z,64.30
2022-09-23T10:52:55.141Z,64.30
2022-09-23T10:55:40.017Z,64.50
2022-09-23T10:58:19.283Z,64.40
2022-09-23T11:01:01.039Z,64.30
2022-09-23T11:04:00.060Z,64.90
2022-09-23T11:06:58.686Z,64.40
2022-09-23T11:09:28.284Z,65.20
2022-09-23T11:11:54.875Z,64.60
2022-09-23T11:14:45.196Z,65.00
2022-09-23T11:17:20.585Z,65.30
2022-09-23T11:19:56.445Z,65.50
2022-09-23T11:23:00.807Z,64.80
2022-09-23T11:25:28.002Z,64.90
2022-09-23T11:28:23.307Z,65.20
2022-09-23T11:31:21.254Z,65.70
2022-09-23T11:33:52.663Z,66.00
2022-09-23T11:36:37.284Z,66.30
2022-09-23T11:39:15.034Z,66.50
2022-09-23T11:41:43.142Z,66.80
2022-09-23T11:44:21.721Z,66.70
2022-09-23T11:47:08.999Z,66.00
2022-09-23T11:49:49.913Z,65.60
2022-09-23T11:52:27.469Z,65.90
2022-09-23T11:55:07.267Z,66.10
2022-09-23T11:57:48.885Z,66.30
2022-09-23T12:00:22.027Z,66.50
2022-09-23T12:03:04.906Z,67.20
2022-09-23T12:05:58.991Z,67.20
2022-09-23T12:08:36.976Z,67.10
2022-09-23T12:11:31.407Z,67.10
2022-09-23T12:14:04.047Z,67.10
2022-09-23T12:16:59.845Z,67.10
2022-09-23T12:19:57.427Z,67.10
2022-09-23T12:22:42.111Z,67.00
2022-09-23T12:25:23.735Z,66.40
2022-09-23T12:27:52.954Z,66.40
2022-09-23T12:30:23.044Z,66.30
2022-09-23T12:32:49.760Z,66.50
2022-09-23T12:35:33.464Z,65.30
2022-09-23T12:38:01.183Z,65.30
2022-09-23T12:40:35.307Z,63.90
2022-09-23T12:43:02.585Z,64.10
2022-09-23T12:45:32.477Z,64.80
2022-09-23T12:48:00.118Z,65.20
2022-09-23T12:50:54.725Z,65.30
2022-09-23T12:53:33.639Z,65.60
2022-09-23T12:56:13.678Z,65.70
2022-09-23T12:58:43.308Z,65.70
2022-09-23T13:01:17.336Z,66.00
2022-09-23T13:04:12.307Z,66.00
2022-09-23T13:06:59.074Z,66.10
2022-09-23T13:09:30.968Z,66.10
2022-09-23T13:12:04.402Z,66.10
2022-09-23T13:14:33.046Z,66.20
2022-09-23T13:17:00.390Z,66.20
2022-09-23T13:19:27.057Z,66.30
2022-09-23T13:21:53.597Z,66.40
2022-09-23T13:24:22.946Z,66.60
2022-09-23T13:27:00.453Z,66.60
2022-09-23T13:29:37.590Z,66.50
2022-09-23T13:32:05.962Z,66.60
2022-09-23T13:34:34.867Z,66.70
2022-09-23T13:37:45.366Z,66.60
2022-09-23T13:40:24.194Z,66.40
2022-09-23T13:43:08.917Z,66.20
2022-09-23T13:45:43.585Z,66.30
2022-09-23T13:48:15.323Z,66.40
2022-09-23T13:50:50.595Z,66.50
2022-09-23T13:53:26.053Z,66.50
2022-09-23T13:56:05.804Z,66.40
2022-09-23T13:58:34.250Z,66.30
2022-09-23T14:01:02.142Z,66.50
2022-09-23T14:03:35.393Z,66.50
2022-09-23T14:06:08.727Z,66.40
2022-09-23T14:08:37.066Z,66.40
2022-09-23T14:11:05.099Z,66.60
2022-09-23T14:13:41.766Z,66.70
2022-09-23T14:16:11.308Z,66.60
2022-09-23T14:18:41.199Z,66.40
2022-09-23T14:21:26.860Z,66.20
2022-09-23T14:23:53.459Z,66.20
2022-09-23T14:26:21.053Z,66.60
2022-09-23T14:28:48.255Z,66.60
2022-09-23T14:31:15.271Z,66.80
2022-09-23T14:33:42.886Z,65.80
2022-09-23T14:36:34.835Z,65.80
2022-09-23T14:39:10.151Z,66.00
2022-09-23T14:41:45.871Z,65.80
2022-09-23T14:44:22.147Z,65.90
2022-09-23T14:46:59.478Z,65.80
2022-09-23T14:49:27.146Z,66.30
2022-09-23T14:52:00.631Z,66.20
2022-09-23T14:55:01.916Z,66.10
2022-09-23T14:57:32.294Z,66.30
2022-09-23T15:00:02.388Z,66.30
2022-09-23T15:02:32.790Z,67.10
2022-09-23T15:05:17.895Z,67.00
2022-09-23T15:07:51.295Z,67.10
2022-09-23T15:10:23.476Z,66.90
2022-09-23T15:12:52.320Z,66.50
2022-09-23T15:15:19.442Z,66.80
2022-09-23T15:17:46.552Z,66.60
2022-09-23T15:20:16.153Z,66.40
2022-09-23T15:22:45.008Z,66.60
2022-09-23T15:25:18.301Z,66.60
2022-09-23T15:28:02.366Z,66.70
2022-09-23T15:30:30.539Z,66.80
2022-09-23T15:32:57.645Z,66.80
2022-09-23T15:35:26.621Z,66.90
2022-09-23T15:37:58.077Z,66.90
2022-09-23T15:40:26.196Z,67.00
2022-09-23T15:42:56.703Z,66.80
2022-09-23T15:45:44.559Z,66.90
2022-09-23T15:48:14.611Z,66.90
2022-09-23T15:50:42.701Z,67.00
2022-09-23T15:53:17.376Z,67.00
2022-09-23T15:55:44.544Z,66.80
2022-09-23T15:58:11.539Z,66.60
2022-09-23T16:00:38.342Z,66.60
2022-09-23T16:03:06.521Z,66.70
2022-09-23T16:05:37.896Z,66.90
2022-09-23T16:08:09.830Z,66.90
2022-09-23T16:10:37.245Z,67.10
2022-09-23T16:13:06.715Z,67.20
2022-09-23T16:15:33.707Z,67.40
2022-09-23T16:18:01.143Z,67.50
2022-09-23T16:20:29.969Z,67.70
2022-09-23T16:23:03.345Z,68.20
2022-09-23T16:25:33.893Z,68.30
2022-09-23T16:28:00.626Z,68.30
2022-09-23T16:30:29.615Z,68.70
2022-09-23T16:32:56.489Z,68.80
2022-09-23T16:35:25.468Z,68.80
2022-09-23T16:37:52.843Z,69.10
2022-09-23T16:40:22.487Z,69.30
2022-09-23T16:42:51.993Z,69.50
2022-09-23T16:45:22.886Z,69.50
2022-09-23T16:47:51.766Z,69.60
2022-09-23T16:50:22.546Z,69.80
2022-09-23T16:52:56.785Z,70.10
2022-09-23T16:55:25.636Z,70.40
2022-09-23T16:57:53.803Z,70.60
2022-09-23T17:00:39.922Z,70.70
2022-09-23T17:03:25.583Z,70.90
2022-09-23T17:05:54.402Z,71.10
2022-09-23T17:08:20.979Z,71.40
2022-09-23T17:10:57.031Z,71.50
2022-09-23T17:13:25.339Z,71.60
2022-09-23T17:15:53.171Z,71.80
2022-09-23T17:18:20.861Z,71.80
2022-09-23T17:21:04.869Z,71.90
2022-09-23T17:23:33.377Z,71.90
2022-09-23T17:26:00.068Z,71.90
2022-09-23T17:28:26.957Z,71.90
2022-09-23T17:31:02.184Z,72.00
2022-09-23T17:33:31.270Z,72.00
2022-09-23T17:35:59.837Z,72.20
2022-09-23T17:38:29.069Z,72.30
2022-09-23T17:40:58.972Z,72.40
2022-09-23T17:43:25.963Z,72.40
2022-09-23T17:45:54.410Z,72.50
2022-09-23T17:48:22.178Z,73.10
2022-09-23T17:50:56.739Z,73.10
2022-09-23T17:53:24.183Z,73.40
2022-09-23T17:56:04.152Z,73.90
2022-09-23T17:58:33.632Z,74.00
2022-09-23T18:01:00.715Z,74.60
2022-09-23T18:03:28.827Z,75.50
2022-09-23T18:06:05.326Z,76.20
2022-09-23T18:08:31.972Z,76.50
2022-09-23T18:10:58.624Z,76.70
2022-09-23T18:13:25.237Z,76.40
2022-09-23T18:15:52.007Z,76.40
2022-09-23T18:18:18.656Z,76.20
2022-09-23T18:20:45.368Z,76.20
2022-09-23T18:23:11.965Z,76.50
2022-09-23T18:25:39.785Z,76.50
2022-09-23T18:28:06.761Z,76.60
2022-09-23T18:30:33.455Z,76.90
2022-09-23T18:33:00.126Z,76.80
2022-09-23T18:35:26.738Z,76.60
2022-09-23T18:37:53.314Z,76.50
2022-09-23T18:40:19.936Z,76.50
2022-09-23T18:42:46.930Z,77.10
2022-09-23T18:45:13.554Z,77.90
2022-09-23T18:47:58.657Z,77.90
2022-09-23T18:50:41.894Z,78.00
2022-09-23T18:53:09.386Z,78.30
2022-09-23T18:55:36.781Z,78.50
2022-09-23T18:58:07.260Z,78.60
2022-09-23T19:00:34.927Z,78.90
2022-09-23T19:03:02.102Z,79.00
2022-09-23T19:05:28.990Z,79.20
2022-09-23T19:07:55.594Z,79.20
2022-09-23T19:10:22.289Z,79.20
2022-09-23T19:12:49.141Z,79.30
2022-09-23T19:15:15.786Z,79.60
2022-09-23T19:17:42.430Z,79.60
2022-09-23T19:20:10.015Z,79.80
2022-09-23T19:22:36.655Z,79.80
2022-09-23T19:25:03.718Z,79.90
2022-09-23T19:27:30.318Z,79.90
2022-09-23T19:29:57.745Z,79.90
2022-09-23T19:32:26.965Z,80.10
2022-09-23T19:34:53.652Z,80.00
2022-09-23T19:37:20.245Z,80.30
2022-09-23T19:39:47.551Z,80.50
2022-09-23T19:42:14.258Z,80.60
2022-09-23T19:44:40.920Z,80.70
2022-09-23T19:47:07.891Z,80.60
2022-09-23T19:49:35.444Z,80.60
2022-09-23T19:52:02.257Z,80.80
2022-09-23T19:54:28.850Z,80.80
2022-09-23T19:56:55.646Z,80.70
2022-09-23T19:59:22.301Z,80.50
2022-09-23T20:01:49.138Z,80.60
2022-09-23T20:04:16.606Z,80.50
2022-09-23T20:06:43.322Z,80.40
2022-09-23T20:09:09.988Z,80.60
2022-09-23T20:11:36.651Z,80.60
2022-09-23T20:14:05.887Z,80.50
2022-09-23T20:16:35.161Z,80.50
2022-09-23T20:19:03.976Z,80.60
2022-09-23T20:21:31.168Z,80.90
2022-09-23T20:23:58.255Z,81.10
2022-09-23T20:26:43.288Z,81.40
2022-09-23T20:29:10.950Z,81.40
2022-09-23T20:31:40.197Z,81.30
2022-09-23T20:34:08.082Z,81.20
2022-09-23T20:36:35.921Z,81.30
2022-09-23T20:39:07.883Z,81.30
2022-09-23T20:41:37.701Z,81.50
2022-09-23T20:44:07.391Z,81.50
2022-09-23T20:46:34.623Z,81.70
2022-09-23T20:49:01.852Z,81.70
2022-09-23T20:51:28.582Z,81.60
2022-09-23T20:53:55.425Z,81.70
2022-09-23T20:56:25.647Z,82.00
2022-09-23T20:58:54.012Z,81.80
2022-09-23T21:01:21.433Z,81.40
2022-09-23T21:03:50.135Z,81.20
2022-09-23T21:06:19.357Z,81.20
2022-09-23T21:08:46.560Z,81.30
2022-09-23T21:11:16.271Z,81.30
2022-09-23T21:13:47.718Z,81.40
2022-09-23T21:16:15.953Z,81.70
2022-09-23T21:18:43.377Z,81.90
2022-09-23T21:21:11.404Z,81.90
2022-09-23T21:23:39.046Z,81.80
2022-09-23T21:26:08.087Z,81.90
2022-09-23T21:28:37.151Z,82.00
2022-09-23T21:31:07.523Z,82.30
2022-09-23T21:33:36.593Z,82.50
2022-09-23T21:36:05.767Z,82.50
2022-09-23T21:38:39.141Z,82.30
2022-09-23T21:41:08.367Z,82.20
2022-09-23T21:43:38.290Z,82.10
2022-09-23T21:46:07.421Z,82.70
2022-09-23T21:48:40.971Z,82.90
2022-09-23T21:51:14.341Z,83.00
2022-09-23T21:53:42.423Z,82.80
2022-09-23T21:56:19.604Z,82.40
2022-09-23T21:58:47.386Z,82.30
2022-09-23T22:01:24.575Z,81.80
2022-09-23T22:03:59.318Z,81.80
2022-09-23T22:06:27.995Z,82.00
2022-09-23T22:09:01.123Z,82.00
2022-09-23T22:11:48.945Z,82.10
2022-09-23T22:14:17.053Z,82.10
2022-09-23T22:16:44.194Z,82.10
2022-09-23T22:19:12.476Z,82.30
2022-09-23T22:21:40.621Z,82.40
2022-09-23T22:24:08.910Z,82.60
2022-09-23T22:26:41.583Z,82.60
2022-09-23T22:29:29.139Z,82.60
2022-09-23T22:32:14.588Z,82.50
2022-09-23T22:34:53.205Z,82.70
2022-09-23T22:37:25.374Z,82.70
2022-09-23T22:39:52.008Z,82.70
2022-09-23T22:42:21.066Z,82.70
2022-09-23T22:44:48.013Z,82.80
2022-09-23T22:47:15.418Z,83.00
2022-09-23T22:49:42.808Z,83.00
2022-09-23T22:52:11.123Z,83.40
2022-09-23T22:54:37.771Z,83.40
2022-09-23T22:57:08.980Z,83.40
2022-09-23T22:59:37.376Z,83.30
2022-09-23T23:02:05.030Z,83.20
2022-09-23T23:04:31.947Z,83.10
2022-09-23T23:06:58.690Z,82.90
2022-09-23T23:09:25.411Z,82.90
2022-09-23T23:11:51.991Z,83.00
2022-09-23T23:14:19.040Z,82.80
2022-09-23T23:16:46.176Z,83.00
2022-09-23T23:19:16.793Z,82.90
2022-09-23T23:21:44.618Z,82.80
2022-09-23T23:24:17.331Z,82.90
2022-09-23T23:26:44.506Z,83.00
2022-09-23T23:29:13.257Z,83.10
2022-09-23T23:31:40.670Z,82.90
2022-09-23T23:34:11.505Z,83.30
2022-09-23T23:36:38.431Z,83.20
2022-09-23T23:39:05.337Z,82.90
2022-09-23T23:41:32.042Z,82.70
2022-09-23T23:44:00.282Z,83.00
2022-09-23T23:46:28.743Z,83.20
2022-09-23T23:48:56.640Z,83.30
2022-09-23T23:51:26.286Z,83.10
2022-09-23T23:53:53.920Z,83.00
2022-09-23T23:56:22.796Z,83.40
2022-09-23T23:58:57.771Z,83.70
